sensor_id;sensor_type;location;lat;lon;timestamp;temperature;humidity
30150;DHT22;16962;48.646;9.026;2023-04-03T00:00:16;2.40;99.90
30150;DHT22;16962;48.646;9.026;2023-04-03T00:03:03;2.40;99.90
30150;DHT22;16962;48.646;9.026;2023-04-03T00:05:50;2.40;99.90
30150;DHT22;16962;48.646;9.026;2023-04-03T00:08:38;2.40;99.90
30150;DHT22;16962;48.646;9.026;2023-04-03T00:11:26;2.40;99.90
30150;DHT22;16962;48.646;9.026;2023-04-03T00:14:14;2.40;99.90
30150;DHT22;16962;48.646;9.026;2023-04-03T00:17:05;2.40;99.90
30150;DHT22;16962;48.646;9.026;2023-04-03T00:19:52;2.40;99.90
30150;DHT22;16962;48.646;9.026;2023-04-03T00:22:39;2.40;99.90
30150;DHT22;16962;48.646;9.026;2023-04-03T00:25:26;2.30;99.90
30150;DHT22;16962;48.646;9.026;2023-04-03T00:28:14;2.30;99.90
30150;DHT22;16962;48.646;9.026;2023-04-03T00:31:01;2.30;99.90
30150;DHT22;16962;48.646;9.026;2023-04-03T00:34:00;2.30;91.10
30150;DHT22;16962;48.646;9.026;2023-04-03T00:36:50;2.20;90.00
30150;DHT22;16962;48.646;9.026;2023-04-03T00:39:38;2.20;87.20
30150;DHT22;16962;48.646;9.026;2023-04-03T00:42:26;2.20;97.30
30150;DHT22;16962;48.646;9.026;2023-04-03T00:48:42;2.20;94.20
30150;DHT22;16962;48.646;9.026;2023-04-03T00:51:30;2.20;92.40
30150;DHT22;16962;48.646;9.026;2023-04-03T00:54:17;2.10;90.50
30150;DHT22;16962;48.646;9.026;2023-04-03T00:57:06;2.10;74.60
30150;DHT22;16962;48.646;9.026;2023-04-03T00:59:57;2.20;80.20
30150;DHT22;16962;48.646;9.026;2023-04-03T01:02:46;2.10;64.10
30150;DHT22;16962;48.646;9.026;2023-04-03T01:05:37;2.00;52.00
30150;DHT22;16962;48.646;9.026;2023-04-03T01:08:25;2.00;56.10
30150;DHT22;16962;48.646;9.026;2023-04-03T01:11:12;2.00;48.60
30150;DHT22;16962;48.646;9.026;2023-04-03T01:14:02;2.00;33.30
30150;DHT22;16962;48.646;9.026;2023-04-03T01:16:53;2.10;34.90
30150;DHT22;16962;48.646;9.026;2023-04-03T01:19:42;2.00;22.30
30150;DHT22;16962;48.646;9.026;2023-04-03T01:22:35;2.10;19.30
30150;DHT22;16962;48.646;9.026;2023-04-03T01:25:29;2.00;26.30
30150;DHT22;16962;48.646;9.026;2023-04-03T01:28:31;2.00;23.30
30150;DHT22;16962;48.646;9.026;2023-04-03T01:34:27;2.00;15.90
30150;DHT22;16962;48.646;9.026;2023-04-03T01:37:15;2.00;14.50
30150;DHT22;16962;48.646;9.026;2023-04-03T01:40:03;2.00;11.20
30150;DHT22;16962;48.646;9.026;2023-04-03T01:42:50;1.90;10.00
30150;DHT22;16962;48.646;9.026;2023-04-03T01:45:37;1.90;15.00
30150;DHT22;16962;48.646;9.026;2023-04-03T01:48:27;1.80;14.90
30150;DHT22;16962;48.646;9.026;2023-04-03T01:51:14;1.80;17.80
30150;DHT22;16962;48.646;9.026;2023-04-03T01:54:02;1.80;24.20
30150;DHT22;16962;48.646;9.026;2023-04-03T01:56:49;1.80;26.00
30150;DHT22;16962;48.646;9.026;2023-04-03T01:59:37;1.70;31.10
30150;DHT22;16962;48.646;9.026;2023-04-03T02:02:25;1.70;40.30
30150;DHT22;16962;48.646;9.026;2023-04-03T02:05:12;1.70;56.60
30150;DHT22;16962;48.646;9.026;2023-04-03T02:07:59;1.60;62.90
30150;DHT22;16962;48.646;9.026;2023-04-03T02:10:48;1.60;91.20
30150;DHT22;16962;48.646;9.026;2023-04-03T02:13:35;1.60;92.90
30150;DHT22;16962;48.646;9.026;2023-04-03T02:16:22;1.60;99.90
30150;DHT22;16962;48.646;9.026;2023-04-03T02:19:10;1.60;99.90
30150;DHT22;16962;48.646;9.026;2023-04-03T02:21:59;1.50;99.90
30150;DHT22;16962;48.646;9.026;2023-04-03T02:24:47;1.50;99.90
30150;DHT22;16962;48.646;9.026;2023-04-03T02:27:34;1.50;99.90
30150;DHT22;16962;48.646;9.026;2023-04-03T02:30:22;1.40;99.90
30150;DHT22;16962;48.646;9.026;2023-04-03T02:33:12;1.40;99.90
30150;DHT22;16962;48.646;9.026;2023-04-03T02:36:07;1.40;99.90
30150;DHT22;16962;48.646;9.026;2023-04-03T02:38:54;1.40;99.90
30150;DHT22;16962;48.646;9.026;2023-04-03T02:41:41;1.40;99.90
30150;DHT22;16962;48.646;9.026;2023-04-03T02:44:29;1.50;99.90
30150;DHT22;16962;48.646;9.026;2023-04-03T02:47:16;1.40;99.90
30150;DHT22;16962;48.646;9.026;2023-04-03T02:50:04;1.40;99.90
30150;DHT22;16962;48.646;9.026;2023-04-03T02:52:51;1.40;99.90
30150;DHT22;16962;48.646;9.026;2023-04-03T02:55:44;1.50;99.90
30150;DHT22;16962;48.646;9.026;2023-04-03T02:58:32;1.50;99.90
30150;DHT22;16962;48.646;9.026;2023-04-03T03:01:20;1.50;99.90
30150;DHT22;16962;48.646;9.026;2023-04-03T03:04:07;1.50;94.50
30150;DHT22;16962;48.646;9.026;2023-04-03T03:06:54;1.60;76.00
30150;DHT22;16962;48.646;9.026;2023-04-03T03:09:41;1.60;41.80
30150;DHT22;16962;48.646;9.026;2023-04-03T03:12:31;1.60;12.50
30150;DHT22;16962;48.646;9.026;2023-04-03T03:15:19;1.70;1.00
30150;DHT22;16962;48.646;9.026;2023-04-03T03:18:07;1.60;1.00
30150;DHT22;16962;48.646;9.026;2023-04-03T03:20:58;1.60;1.00
30150;DHT22;16962;48.646;9.026;2023-04-03T03:23:59;1.60;1.00
30150;DHT22;16962;48.646;9.026;2023-04-03T03:26:46;1.70;1.00
30150;DHT22;16962;48.646;9.026;2023-04-03T03:29:33;1.60;1.00
30150;DHT22;16962;48.646;9.026;2023-04-03T03:32:21;1.60;1.00
30150;DHT22;16962;48.646;9.026;2023-04-03T03:35:08;1.60;1.00
30150;DHT22;16962;48.646;9.026;2023-04-03T03:37:55;1.60;1.00
30150;DHT22;16962;48.646;9.026;2023-04-03T03:40:44;1.60;1.00
30150;DHT22;16962;48.646;9.026;2023-04-03T03:43:32;1.60;1.00
30150;DHT22;16962;48.646;9.026;2023-04-03T03:46:21;1.60;1.00
30150;DHT22;16962;48.646;9.026;2023-04-03T03:49:09;1.60;1.00
30150;DHT22;16962;48.646;9.026;2023-04-03T03:51:56;1.60;1.00
30150;DHT22;16962;48.646;9.026;2023-04-03T03:54:45;1.70;1.00
30150;DHT22;16962;48.646;9.026;2023-04-03T03:57:32;1.60;1.00
30150;DHT22;16962;48.646;9.026;2023-04-03T04:00:20;1.60;1.00
30150;DHT22;16962;48.646;9.026;2023-04-03T04:03:07;1.60;99.90
30150;DHT22;16962;48.646;9.026;2023-04-03T04:05:54;1.70;99.90
30150;DHT22;16962;48.646;9.026;2023-04-03T04:08:42;1.70;99.90
30150;DHT22;16962;48.646;9.026;2023-04-03T04:11:37;1.70;99.90
30150;DHT22;16962;48.646;9.026;2023-04-03T04:14:26;1.70;99.90
30150;DHT22;16962;48.646;9.026;2023-04-03T04:17:14;1.70;99.90
30150;DHT22;16962;48.646;9.026;2023-04-03T04:20:03;1.70;99.90
30150;DHT22;16962;48.646;9.026;2023-04-03T04:22:52;1.70;99.90
30150;DHT22;16962;48.646;9.026;2023-04-03T04:25:40;1.60;99.90
30150;DHT22;16962;48.646;9.026;2023-04-03T04:28:27;1.60;99.90
30150;DHT22;16962;48.646;9.026;2023-04-03T04:31:14;1.60;99.90
30150;DHT22;16962;48.646;9.026;2023-04-03T04:34:04;1.70;99.90
30150;DHT22;16962;48.646;9.026;2023-04-03T04:36:51;1.70;99.90
30150;DHT22;16962;48.646;9.026;2023-04-03T04:39:41;1.70;99.90
30150;DHT22;16962;48.646;9.026;2023-04-03T04:42:31;1.70;99.90
30150;DHT22;16962;48.646;9.026;2023-04-03T04:45:18;1.70;99.90
30150;DHT22;16962;48.646;9.026;2023-04-03T04:48:05;1.70;99.90
30150;DHT22;16962;48.646;9.026;2023-04-03T04:50:53;1.60;99.90
30150;DHT22;16962;48.646;9.026;2023-04-03T04:53:40;1.70;99.90
30150;DHT22;16962;48.646;9.026;2023-04-03T04:56:30;1.60;99.90
30150;DHT22;16962;48.646;9.026;2023-04-03T04:59:19;1.70;99.90
30150;DHT22;16962;48.646;9.026;2023-04-03T05:02:07;1.70;99.90
30150;DHT22;16962;48.646;9.026;2023-04-03T05:04:57;1.70;99.90
30150;DHT22;16962;48.646;9.026;2023-04-03T05:07:46;1.70;99.90
30150;DHT22;16962;48.646;9.026;2023-04-03T05:10:36;1.70;99.90
30150;DHT22;16962;48.646;9.026;2023-04-03T05:13:23;1.70;99.90
30150;DHT22;16962;48.646;9.026;2023-04-03T05:16:11;1.70;99.90
30150;DHT22;16962;48.646;9.026;2023-04-03T05:19:00;1.70;99.90
30150;DHT22;16962;48.646;9.026;2023-04-03T05:21:48;1.80;99.90
30150;DHT22;16962;48.646;9.026;2023-04-03T05:24:36;1.80;99.90
30150;DHT22;16962;48.646;9.026;2023-04-03T05:27:25;1.80;99.90
30150;DHT22;16962;48.646;9.026;2023-04-03T05:30:15;1.80;99.90
30150;DHT22;16962;48.646;9.026;2023-04-03T05:33:03;1.90;99.90
30150;DHT22;16962;48.646;9.026;2023-04-03T05:35:51;1.90;99.90
30150;DHT22;16962;48.646;9.026;2023-04-03T05:38:39;1.90;99.90
30150;DHT22;16962;48.646;9.026;2023-04-03T05:41:26;2.00;99.90
30150;DHT22;16962;48.646;9.026;2023-04-03T05:44:14;1.90;84.30
30150;DHT22;16962;48.646;9.026;2023-04-03T05:47:04;2.00;61.50
30150;DHT22;16962;48.646;9.026;2023-04-03T05:49:52;2.00;45.70
30150;DHT22;16962;48.646;9.026;2023-04-03T05:52:42;2.00;25.00
30150;DHT22;16962;48.646;9.026;2023-04-03T05:55:36;2.10;9.00
30150;DHT22;16962;48.646;9.026;2023-04-03T05:58:29;2.20;1.00
30150;DHT22;16962;48.646;9.026;2023-04-03T07:06:57;3.20;1.00
30150;DHT22;16962;48.646;9.026;2023-04-03T07:14:50;3.50;1.00
30150;DHT22;16962;48.646;9.026;2023-04-03T07:22:18;3.90;1.00
30150;DHT22;16962;48.646;9.026;2023-04-03T07:25:11;3.80;1.00
30150;DHT22;16962;48.646;9.026;2023-04-03T07:28:37;4.00;1.00
30150;DHT22;16962;48.646;9.026;2023-04-03T07:31:43;3.80;1.00
30150;DHT22;16962;48.646;9.026;2023-04-03T07:35:07;3.80;1.00
30150;DHT22;16962;48.646;9.026;2023-04-03T07:54:18;4.50;99.90
30150;DHT22;16962;48.646;9.026;2023-04-03T07:57:22;4.70;99.90
30150;DHT22;16962;48.646;9.026;2023-04-03T08:00:30;4.60;99.90
30150;DHT22;16962;48.646;9.026;2023-04-03T08:03:19;4.80;99.90
30150;DHT22;16962;48.646;9.026;2023-04-03T08:06:18;4.80;99.90
30150;DHT22;16962;48.646;9.026;2023-04-03T08:09:56;4.80;99.90
30150;DHT22;16962;48.646;9.026;2023-04-03T08:13:50;4.90;99.90
30150;DHT22;16962;48.646;9.026;2023-04-03T08:16:59;5.00;99.90
30150;DHT22;16962;48.646;9.026;2023-04-03T08:19:57;5.10;99.90
30150;DHT22;16962;48.646;9.026;2023-04-03T08:23:12;5.30;99.90
30150;DHT22;16962;48.646;9.026;2023-04-03T08:26:31;5.30;99.90
30150;DHT22;16962;48.646;9.026;2023-04-03T08:30:38;5.20;99.90
30150;DHT22;16962;48.646;9.026;2023-04-03T08:38:16;5.00;99.90
30150;DHT22;16962;48.646;9.026;2023-04-03T08:52:00;5.10;99.90
30150;DHT22;16962;48.646;9.026;2023-04-03T08:55:31;5.00;99.90
30150;DHT22;16962;48.646;9.026;2023-04-03T08:58:28;4.90;99.90
30150;DHT22;16962;48.646;9.026;2023-04-03T09:01:57;4.90;99.90
30150;DHT22;16962;48.646;9.026;2023-04-03T09:05:13;5.00;99.90
30150;DHT22;16962;48.646;9.026;2023-04-03T09:08:30;5.30;99.90
30150;DHT22;16962;48.646;9.026;2023-04-03T09:15:00;5.40;99.90
30150;DHT22;16962;48.646;9.026;2023-04-03T09:18:06;5.50;99.90
30150;DHT22;16962;48.646;9.026;2023-04-03T09:21:17;5.60;99.90
30150;DHT22;16962;48.646;9.026;2023-04-03T09:24:13;5.20;99.90
30150;DHT22;16962;48.646;9.026;2023-04-03T09:27:13;5.20;99.90
30150;DHT22;16962;48.646;9.026;2023-04-03T09:30:20;5.50;99.90
30150;DHT22;16962;48.646;9.026;2023-04-03T09:33:12;5.50;99.90
30150;DHT22;16962;48.646;9.026;2023-04-03T09:36:09;5.60;99.90
30150;DHT22;16962;48.646;9.026;2023-04-03T09:39:05;5.90;99.90
30150;DHT22;16962;48.646;9.026;2023-04-03T09:42:34;5.90;99.90
30150;DHT22;16962;48.646;9.026;2023-04-03T09:46:15;5.90;99.90
30150;DHT22;16962;48.646;9.026;2023-04-03T09:49:31;5.70;99.90
30150;DHT22;16962;48.646;9.026;2023-04-03T10:00:40;4.80;99.90
30150;DHT22;16962;48.646;9.026;2023-04-03T10:04:21;4.80;99.90
30150;DHT22;16962;48.646;9.026;2023-04-03T10:16:00;4.80;99.90
30150;DHT22;16962;48.646;9.026;2023-04-03T10:23:53;5.10;99.90
30150;DHT22;16962;48.646;9.026;2023-04-03T11:01:06;5.90;99.90
30150;DHT22;16962;48.646;9.026;2023-04-03T11:04:12;5.90;99.90
30150;DHT22;16962;48.646;9.026;2023-04-03T11:11:08;6.50;99.90
30150;DHT22;16962;48.646;9.026;2023-04-03T11:14:24;6.40;99.90
30150;DHT22;16962;48.646;9.026;2023-04-03T11:28:36;6.70;99.90
30150;DHT22;16962;48.646;9.026;2023-04-03T11:34:39;6.30;99.90
30150;DHT22;16962;48.646;9.026;2023-04-03T11:41:14;6.20;99.90
30150;DHT22;16962;48.646;9.026;2023-04-03T12:25:51;6.70;99.90
30150;DHT22;16962;48.646;9.026;2023-04-03T12:28:51;6.60;99.90
30150;DHT22;16962;48.646;9.026;2023-04-03T12:32:45;6.30;99.90
30150;DHT22;16962;48.646;9.026;2023-04-03T12:36:15;6.10;99.90
30150;DHT22;16962;48.646;9.026;2023-04-03T12:40:16;5.90;99.90
30150;DHT22;16962;48.646;9.026;2023-04-03T12:46:38;5.50;99.90
30150;DHT22;16962;48.646;9.026;2023-04-03T12:49:53;5.40;99.90
30150;DHT22;16962;48.646;9.026;2023-04-03T12:53:51;5.40;99.90
30150;DHT22;16962;48.646;9.026;2023-04-03T12:59:27;5.40;99.90
30150;DHT22;16962;48.646;9.026;2023-04-03T13:02:33;5.50;99.90
30150;DHT22;16962;48.646;9.026;2023-04-03T13:05:54;5.80;99.90
30150;DHT22;16962;48.646;9.026;2023-04-03T13:09:55;6.40;99.90
30150;DHT22;16962;48.646;9.026;2023-04-03T13:13:09;7.50;99.90
30150;DHT22;16962;48.646;9.026;2023-04-03T13:16:20;7.70;99.90
30150;DHT22;16962;48.646;9.026;2023-04-03T13:23:52;7.40;99.90
30150;DHT22;16962;48.646;9.026;2023-04-03T13:31:51;5.90;99.90
30150;DHT22;16962;48.646;9.026;2023-04-03T13:43:14;6.30;99.90
30150;DHT22;16962;48.646;9.026;2023-04-03T14:06:36;6.10;99.90
30150;DHT22;16962;48.646;9.026;2023-04-03T14:10:17;6.00;99.90
30150;DHT22;16962;48.646;9.026;2023-04-03T14:13:24;5.70;99.90
30150;DHT22;16962;48.646;9.026;2023-04-03T14:37:57;6.40;99.90
30150;DHT22;16962;48.646;9.026;2023-04-03T14:44:41;6.60;99.90
30150;DHT22;16962;48.646;9.026;2023-04-03T14:47:44;6.30;99.90
30150;DHT22;16962;48.646;9.026;2023-04-03T14:51:43;6.30;97.40
30150;DHT22;16962;48.646;9.026;2023-04-03T14:54:59;6.40;99.40
30150;DHT22;16962;48.646;9.026;2023-04-03T14:57:57;6.80;99.90
30150;DHT22;16962;48.646;9.026;2023-04-03T15:00:47;7.50;99.90
30150;DHT22;16962;48.646;9.026;2023-04-03T15:03:34;7.50;99.90
30150;DHT22;16962;48.646;9.026;2023-04-03T15:10:37;6.70;96.00
30150;DHT22;16962;48.646;9.026;2023-04-03T15:13:32;6.70;97.60
30150;DHT22;16962;48.646;9.026;2023-04-03T15:16:23;6.60;99.90
30150;DHT22;16962;48.646;9.026;2023-04-03T15:19:23;6.50;96.30
30150;DHT22;16962;48.646;9.026;2023-04-03T15:22:18;6.60;96.60
30150;DHT22;16962;48.646;9.026;2023-04-03T15:25:11;6.90;96.50
30150;DHT22;16962;48.646;9.026;2023-04-03T15:28:00;8.20;99.90
30150;DHT22;16962;48.646;9.026;2023-04-03T15:30:47;9.50;95.50
30150;DHT22;16962;48.646;9.026;2023-04-03T15:33:36;9.30;73.50
30150;DHT22;16962;48.646;9.026;2023-04-03T15:36:26;9.20;68.20
30150;DHT22;16962;48.646;9.026;2023-04-03T15:39:25;8.10;56.60
30150;DHT22;16962;48.646;9.026;2023-04-03T15:42:17;7.40;56.00
30150;DHT22;16962;48.646;9.026;2023-04-03T15:45:05;6.80;53.80
30150;DHT22;16962;48.646;9.026;2023-04-03T15:47:56;6.30;54.60
30150;DHT22;16962;48.646;9.026;2023-04-03T15:50:44;6.00;58.10
30150;DHT22;16962;48.646;9.026;2023-04-03T15:53:35;5.90;59.80
30150;DHT22;16962;48.646;9.026;2023-04-03T15:56:22;5.80;58.40
30150;DHT22;16962;48.646;9.026;2023-04-03T15:59:11;5.80;61.50
30150;DHT22;16962;48.646;9.026;2023-04-03T16:02:00;5.90;63.40
30150;DHT22;16962;48.646;9.026;2023-04-03T16:04:49;5.80;60.60
30150;DHT22;16962;48.646;9.026;2023-04-03T16:07:40;5.70;58.00
30150;DHT22;16962;48.646;9.026;2023-04-03T16:10:32;5.60;53.30
30150;DHT22;16962;48.646;9.026;2023-04-03T16:13:20;5.60;56.10
30150;DHT22;16962;48.646;9.026;2023-04-03T16:16:10;5.40;55.10
30150;DHT22;16962;48.646;9.026;2023-04-03T16:18:58;5.40;55.60
30150;DHT22;16962;48.646;9.026;2023-04-03T16:21:47;5.50;56.40
30150;DHT22;16962;48.646;9.026;2023-04-03T16:24:35;5.40;58.40
30150;DHT22;16962;48.646;9.026;2023-04-03T16:27:23;5.30;58.20
30150;DHT22;16962;48.646;9.026;2023-04-03T16:30:14;5.20;53.50
30150;DHT22;16962;48.646;9.026;2023-04-03T16:33:02;5.10;54.30
30150;DHT22;16962;48.646;9.026;2023-04-03T16:35:50;5.20;55.30
30150;DHT22;16962;48.646;9.026;2023-04-03T16:38:41;5.20;55.20
30150;DHT22;16962;48.646;9.026;2023-04-03T16:41:32;5.20;55.40
30150;DHT22;16962;48.646;9.026;2023-04-03T16:44:22;5.30;58.80
30150;DHT22;16962;48.646;9.026;2023-04-03T16:47:10;5.30;57.20
30150;DHT22;16962;48.646;9.026;2023-04-03T16:49:58;5.20;57.90
30150;DHT22;16962;48.646;9.026;2023-04-03T16:52:46;5.10;55.80
30150;DHT22;16962;48.646;9.026;2023-04-03T16:55:34;5.00;57.30
30150;DHT22;16962;48.646;9.026;2023-04-03T16:58:22;5.00;55.70
30150;DHT22;16962;48.646;9.026;2023-04-03T17:01:13;4.90;49.10
30150;DHT22;16962;48.646;9.026;2023-04-03T17:04:01;4.80;49.90
30150;DHT22;16962;48.646;9.026;2023-04-03T17:06:48;4.60;50.50
30150;DHT22;16962;48.646;9.026;2023-04-03T17:09:36;4.50;48.00
30150;DHT22;16962;48.646;9.026;2023-04-03T17:12:24;4.40;47.70
30150;DHT22;16962;48.646;9.026;2023-04-03T17:15:14;4.30;46.00
30150;DHT22;16962;48.646;9.026;2023-04-03T17:18:02;4.30;47.10
30150;DHT22;16962;48.646;9.026;2023-04-03T17:20:50;4.30;47.50
30150;DHT22;16962;48.646;9.026;2023-04-03T17:24:03;4.30;47.40
30150;DHT22;16962;48.646;9.026;2023-04-03T17:26:56;4.30;48.60
30150;DHT22;16962;48.646;9.026;2023-04-03T17:29:49;4.30;49.60
30150;DHT22;16962;48.646;9.026;2023-04-03T17:32:55;4.20;49.80
30150;DHT22;16962;48.646;9.026;2023-04-03T17:35:43;4.20;53.00
30150;DHT22;16962;48.646;9.026;2023-04-03T17:44:15;4.10;49.70
30150;DHT22;16962;48.646;9.026;2023-04-03T17:47:02;4.10;50.90
30150;DHT22;16962;48.646;9.026;2023-04-03T17:49:52;4.10;50.30
30150;DHT22;16962;48.646;9.026;2023-04-03T17:52:41;4.00;50.90
30150;DHT22;16962;48.646;9.026;2023-04-03T17:55:29;4.00;52.30
30150;DHT22;16962;48.646;9.026;2023-04-03T17:58:17;4.00;53.50
30150;DHT22;16962;48.646;9.026;2023-04-03T18:01:16;3.90;53.40
30150;DHT22;16962;48.646;9.026;2023-04-03T18:04:04;3.90;54.40
30150;DHT22;16962;48.646;9.026;2023-04-03T18:06:54;3.80;54.80
30150;DHT22;16962;48.646;9.026;2023-04-03T18:09:42;3.80;56.80
30150;DHT22;16962;48.646;9.026;2023-04-03T18:12:34;3.80;57.60
30150;DHT22;16962;48.646;9.026;2023-04-03T18:15:27;3.80;59.20
30150;DHT22;16962;48.646;9.026;2023-04-03T18:18:17;3.80;64.00
30150;DHT22;16962;48.646;9.026;2023-04-03T18:21:05;3.80;62.80
30150;DHT22;16962;48.646;9.026;2023-04-03T18:23:55;3.70;65.60
30150;DHT22;16962;48.646;9.026;2023-04-03T18:26:44;3.70;62.20
30150;DHT22;16962;48.646;9.026;2023-04-03T18:29:36;3.70;63.70
30150;DHT22;16962;48.646;9.026;2023-04-03T18:32:24;3.70;64.10
30150;DHT22;16962;48.646;9.026;2023-04-03T18:35:12;3.60;64.90
30150;DHT22;16962;48.646;9.026;2023-04-03T18:38:03;3.60;65.20
30150;DHT22;16962;48.646;9.026;2023-04-03T18:40:51;3.50;64.10
30150;DHT22;16962;48.646;9.026;2023-04-03T18:43:39;3.40;66.40
30150;DHT22;16962;48.646;9.026;2023-04-03T18:46:27;3.30;68.50
30150;DHT22;16962;48.646;9.026;2023-04-03T18:49:14;3.30;67.90
30150;DHT22;16962;48.646;9.026;2023-04-03T18:52:06;3.30;68.90
30150;DHT22;16962;48.646;9.026;2023-04-03T18:54:54;3.20;67.70
30150;DHT22;16962;48.646;9.026;2023-04-03T18:57:47;3.20;70.40
30150;DHT22;16962;48.646;9.026;2023-04-03T19:00:35;3.10;74.00
30150;DHT22;16962;48.646;9.026;2023-04-03T19:03:24;3.10;76.10
30150;DHT22;16962;48.646;9.026;2023-04-03T19:06:15;3.10;76.30
30150;DHT22;16962;48.646;9.026;2023-04-03T19:09:04;3.00;77.40
30150;DHT22;16962;48.646;9.026;2023-04-03T19:11:52;3.10;80.00
30150;DHT22;16962;48.646;9.026;2023-04-03T19:14:40;3.00;80.80
30150;DHT22;16962;48.646;9.026;2023-04-03T19:17:35;3.10;81.60
30150;DHT22;16962;48.646;9.026;2023-04-03T19:20:23;3.10;80.00
30150;DHT22;16962;48.646;9.026;2023-04-03T19:23:13;3.10;78.20
30150;DHT22;16962;48.646;9.026;2023-04-03T19:26:03;3.10;79.60
30150;DHT22;16962;48.646;9.026;2023-04-03T19:28:52;3.20;79.10
30150;DHT22;16962;48.646;9.026;2023-04-03T19:31:39;3.20;78.00
30150;DHT22;16962;48.646;9.026;2023-04-03T19:34:27;3.10;75.00
30150;DHT22;16962;48.646;9.026;2023-04-03T19:37:14;3.00;77.00
30150;DHT22;16962;48.646;9.026;2023-04-03T19:40:04;2.90;77.40
30150;DHT22;16962;48.646;9.026;2023-04-03T19:42:52;2.80;78.50
30150;DHT22;16962;48.646;9.026;2023-04-03T19:45:41;2.60;91.10
30150;DHT22;16962;48.646;9.026;2023-04-03T19:48:30;2.50;79.20
30150;DHT22;16962;48.646;9.026;2023-04-03T19:51:18;2.50;79.40
30150;DHT22;16962;48.646;9.026;2023-04-03T19:54:14;2.50;76.10
30150;DHT22;16962;48.646;9.026;2023-04-03T19:57:04;2.50;79.00
30150;DHT22;16962;48.646;9.026;2023-04-03T19:59:52;2.50;82.30
30150;DHT22;16962;48.646;9.026;2023-04-03T20:02:40;2.50;82.20
30150;DHT22;16962;48.646;9.026;2023-04-03T20:05:30;2.60;81.80
30150;DHT22;16962;48.646;9.026;2023-04-03T20:08:27;2.50;84.50
30150;DHT22;16962;48.646;9.026;2023-04-03T20:11:25;2.50;83.80
30150;DHT22;16962;48.646;9.026;2023-04-03T20:14:15;2.50;83.90
30150;DHT22;16962;48.646;9.026;2023-04-03T20:17:03;2.40;86.70
30150;DHT22;16962;48.646;9.026;2023-04-03T20:19:51;2.40;88.50
30150;DHT22;16962;48.646;9.026;2023-04-03T20:22:40;2.50;89.50
30150;DHT22;16962;48.646;9.026;2023-04-03T20:25:27;2.50;87.40
30150;DHT22;16962;48.646;9.026;2023-04-03T20:28:35;2.50;89.40
30150;DHT22;16962;48.646;9.026;2023-04-03T20:31:33;2.50;90.50
30150;DHT22;16962;48.646;9.026;2023-04-03T20:34:21;2.50;91.00
30150;DHT22;16962;48.646;9.026;2023-04-03T20:37:09;2.50;90.50
30150;DHT22;16962;48.646;9.026;2023-04-03T20:39:57;2.50;91.10
30150;DHT22;16962;48.646;9.026;2023-04-03T20:42:47;2.40;91.20
30150;DHT22;16962;48.646;9.026;2023-04-03T20:45:34;2.30;90.30
30150;DHT22;16962;48.646;9.026;2023-04-03T20:48:22;2.20;91.40
30150;DHT22;16962;48.646;9.026;2023-04-03T20:51:14;2.10;92.10
30150;DHT22;16962;48.646;9.026;2023-04-03T20:54:04;2.00;93.00
30150;DHT22;16962;48.646;9.026;2023-04-03T20:56:56;1.90;94.00
30150;DHT22;16962;48.646;9.026;2023-04-03T20:59:51;1.80;95.00
30150;DHT22;16962;48.646;9.026;2023-04-03T21:02:40;1.80;95.40
30150;DHT22;16962;48.646;9.026;2023-04-03T21:05:27;1.70;95.70
30150;DHT22;16962;48.646;9.026;2023-04-03T21:21:43;1.30;99.90
30150;DHT22;16962;48.646;9.026;2023-04-03T21:24:32;1.30;99.90
30150;DHT22;16962;48.646;9.026;2023-04-03T21:27:19;1.20;99.90
30150;DHT22;16962;48.646;9.026;2023-04-03T21:30:07;1.10;99.90
30150;DHT22;16962;48.646;9.026;2023-04-03T21:32:55;1.00;99.90
30150;DHT22;16962;48.646;9.026;2023-04-03T21:35:45;1.00;99.90
30150;DHT22;16962;48.646;9.026;2023-04-03T21:38:34;0.90;99.90
30150;DHT22;16962;48.646;9.026;2023-04-03T21:41:24;0.90;99.90
30150;DHT22;16962;48.646;9.026;2023-04-03T21:44:19;0.90;99.90
30150;DHT22;16962;48.646;9.026;2023-04-03T21:47:08;0.80;99.90
30150;DHT22;16962;48.646;9.026;2023-04-03T21:49:55;0.70;99.90
30150;DHT22;16962;48.646;9.026;2023-04-03T21:52:43;0.70;99.90
30150;DHT22;16962;48.646;9.026;2023-04-03T21:55:31;0.60;99.90
30150;DHT22;16962;48.646;9.026;2023-04-03T21:58:18;0.50;99.90
30150;DHT22;16962;48.646;9.026;2023-04-03T22:01:13;0.40;99.90
30150;DHT22;16962;48.646;9.026;2023-04-03T22:04:06;0.40;99.90
30150;DHT22;16962;48.646;9.026;2023-04-03T22:06:56;0.30;99.90
30150;DHT22;16962;48.646;9.026;2023-04-03T22:09:44;0.30;99.90
30150;DHT22;16962;48.646;9.026;2023-04-03T22:12:36;0.10;99.90
30150;DHT22;16962;48.646;9.026;2023-04-03T22:15:36;0.00;99.90
30150;DHT22;16962;48.646;9.026;2023-04-03T22:18:34;0.00;99.90
30150;DHT22;16962;48.646;9.026;2023-04-03T22:21:21;0.00;99.90
30150;DHT22;16962;48.646;9.026;2023-04-03T22:24:14;0.00;99.90
30150;DHT22;16962;48.646;9.026;2023-04-03T22:27:04;-0.10;99.90
30150;DHT22;16962;48.646;9.026;2023-04-03T22:29:52;-0.20;99.90
30150;DHT22;16962;48.646;9.026;2023-04-03T22:32:42;-0.20;99.90
30150;DHT22;16962;48.646;9.026;2023-04-03T22:35:30;-0.20;99.90
30150;DHT22;16962;48.646;9.026;2023-04-03T22:38:18;-0.30;99.90
30150;DHT22;16962;48.646;9.026;2023-04-03T22:41:06;-0.30;99.90
30150;DHT22;16962;48.646;9.026;2023-04-03T22:44:00;-0.30;99.90
30150;DHT22;16962;48.646;9.026;2023-04-03T22:46:55;-0.40;99.90
30150;DHT22;16962;48.646;9.026;2023-04-03T22:49:43;-0.30;99.90
30150;DHT22;16962;48.646;9.026;2023-04-03T22:52:33;-0.40;99.90
30150;DHT22;16962;48.646;9.026;2023-04-03T22:55:22;-0.40;99.90
30150;DHT22;16962;48.646;9.026;2023-04-03T22:58:14;-0.40;99.90
30150;DHT22;16962;48.646;9.026;2023-04-03T23:01:09;-0.50;99.90
30150;DHT22;16962;48.646;9.026;2023-04-03T23:03:57;-0.60;99.90
30150;DHT22;16962;48.646;9.026;2023-04-03T23:06:47;-0.70;99.90
30150;DHT22;16962;48.646;9.026;2023-04-03T23:09:35;-0.80;99.90
30150;DHT22;16962;48.646;9.026;2023-04-03T23:12:22;-0.80;99.90
30150;DHT22;16962;48.646;9.026;2023-04-03T23:15:10;-0.90;99.90
30150;DHT22;16962;48.646;9.026;2023-04-03T23:17:57;-0.90;99.90
30150;DHT22;16962;48.646;9.026;2023-04-03T23:20:44;-0.90;99.90
30150;DHT22;16962;48.646;9.026;2023-04-03T23:23:32;-0.90;99.90
30150;DHT22;16962;48.646;9.026;2023-04-03T23:26:21;-0.90;99.90
30150;DHT22;16962;48.646;9.026;2023-04-03T23:29:10;-0.80;99.90
30150;DHT22;16962;48.646;9.026;2023-04-03T23:31:57;-0.90;99.90
30150;DHT22;16962;48.646;9.026;2023-04-03T23:34:44;-1.00;99.90
30150;DHT22;16962;48.646;9.026;2023-04-03T23:37:32;-1.00;99.90
30150;DHT22;16962;48.646;9.026;2023-04-03T23:40:19;-1.00;99.90
30150;DHT22;16962;48.646;9.026;2023-04-03T23:43:10;-1.00;99.90
30150;DHT22;16962;48.646;9.026;2023-04-03T23:45:59;-1.10;99.90
30150;DHT22;16962;48.646;9.026;2023-04-03T23:48:47;-1.20;99.90
30150;DHT22;16962;48.646;9.026;2023-04-03T23:51:43;-1.10;99.90
30150;DHT22;16962;48.646;9.026;2023-04-03T23:54:30;-1.10;99.90
30150;DHT22;16962;48.646;9.026;2023-04-03T23:57:18;-1.20;99.90
